Time;durP1;ratioP1;P1;durP2;ratioP2;P2;SDS_P1;SDS_P2;PMS_P1;PMS_P2;Temp;Humidity;BMP_temperature;BMP_pressure;BME280_temperature;BME280_humidity;BME280_pressure;Samples;Min_cycle;Max_cycle;Signal;HPM_P1;HPM_P2
2023/01/03 04:00:51;;;;;;;1.63;0.90;;;11.10;76.10;;;;;;5936970;23;20466;-75
2023/01/03 04:03:20;;;;;;;3.10;1.10;;;11.00;76.30;;;;;;4996937;28;20491;-75
2023/01/03 04:05:50;;;;;;;1.97;0.90;;;11.10;76.00;;;;;;4996589;28;20861;-75
2023/01/03 04:08:17;;;;;;;2.37;0.80;;;11.10;75.80;;;;;;4996473;28;20986;-75
2023/01/03 04:10:44;;;;;;;1.70;0.70;;;11.10;75.60;;;;;;4996724;28;20473;-75
2023/01/03 04:13:11;;;;;;;1.80;0.87;;;11.10;75.40;;;;;;4996707;28;20515;-75
2023/01/03 04:15:37;;;;;;;1.70;0.90;;;11.10;75.30;;;;;;4996926;28;20854;-75
2023/01/03 04:18:05;;;;;;;1.80;0.80;;;11.00;75.20;;;;;;4996587;28;20532;-75
2023/01/03 04:20:32;;;;;;;1.70;0.80;;;10.90;75.30;;;;;;4996242;28;20460;-75
2023/01/03 04:22:59;;;;;;;1.70;0.70;;;10.90;75.50;;;;;;4996539;28;20507;-75
2023/01/03 04:25:26;;;;;;;2.57;0.90;;;10.80;75.50;;;;;;4996432;28;20457;-75
2023/01/03 04:27:52;;;;;;;2.30;0.83;;;10.80;75.70;;;;;;4996353;28;20476;-75
2023/01/03 04:30:19;;;;;;;1.60;0.73;;;10.70;75.90;;;;;;4997131;28;20449;-75
2023/01/03 04:32:46;;;;;;;1.70;0.90;;;10.70;76.00;;;;;;4995174;28;20450;-75
2023/01/03 04:35:13;;;;;;;2.37;0.70;;;10.60;75.90;;;;;;4996017;28;20824;-75
2023/01/03 04:37:40;;;;;;;2.77;1.10;;;10.60;75.90;;;;;;4995985;28;20871;-75
2023/01/03 04:40:08;;;;;;;1.80;0.70;;;10.60;76.00;;;;;;4995884;28;20944;-75
2023/01/03 04:45:19;;;;;;;2.47;0.80;;;10.50;76.00;;;;;;4996171;28;20409;-75
2023/01/03 04:47:45;;;;;;;1.63;0.77;;;10.50;76.10;;;;;;4996005;28;20489;-75
2023/01/03 04:50:13;;;;;;;1.90;0.80;;;10.50;76.20;;;;;;4996027;28;20441;-76
2023/01/03 04:52:40;;;;;;;1.80;0.70;;;10.50;76.20;;;;;;4995888;28;20468;-76
2023/01/03 04:55:08;;;;;;;1.87;0.87;;;10.40;76.30;;;;;;4995909;28;20504;-75
2023/01/03 04:57:36;;;;;;;2.00;0.90;;;10.50;76.10;;;;;;4995913;28;20548;-75
2023/01/03 05:00:03;;;;;;;2.03;0.93;;;10.50;76.30;;;;;;4995857;28;20457;-75
2023/01/03 05:02:30;;;;;;;1.63;0.80;;;10.50;76.30;;;;;;4995592;28;20519;-75
2023/01/03 05:04:56;;;;;;;5.00;0.90;;;10.50;76.30;;;;;;4995776;28;20448;-75
2023/01/03 05:07:27;;;;;;;1.80;1.00;;;10.40;76.40;;;;;;4995694;28;20481;-75
2023/01/03 05:09:55;;;;;;;2.10;0.90;;;10.40;76.50;;;;;;4995641;28;20430;-75
2023/01/03 05:12:22;;;;;;;2.57;0.73;;;10.40;76.60;;;;;;4995236;28;21052;-75
2023/01/03 05:14:48;;;;;;;2.03;0.90;;;10.40;76.70;;;;;;4995250;28;20449;-75
2023/01/03 05:17:15;;;;;;;1.80;0.90;;;10.30;76.70;;;;;;4995491;28;20628;-75
2023/01/03 05:27:53;;;;;;;1.70;0.90;;;10.30;77.00;;;;;;4995058;28;20456;-75
2023/01/03 05:30:20;;;;;;;1.73;0.93;;;10.30;77.20;;;;;;4995142;28;20480;-76
2023/01/03 05:32:46;;;;;;;1.70;0.83;;;10.30;76.80;;;;;;4994863;28;20943;-75
2023/01/03 05:35:13;;;;;;;2.37;0.80;;;10.40;76.70;;;;;;4994849;28;20848;-75
2023/01/03 05:37:41;;;;;;;1.70;1.00;;;10.40;76.70;;;;;;4995151;28;20441;-75
2023/01/03 05:40:09;;;;;;;1.70;0.90;;;10.30;76.70;;;;;;4994990;28;20480;-75
2023/01/03 05:42:36;;;;;;;1.70;0.90;;;10.30;76.70;;;;;;4994956;28;20528;-75
2023/01/03 05:45:02;;;;;;;1.60;0.90;;;10.30;76.50;;;;;;4994359;28;20933;-75
2023/01/03 05:47:29;;;;;;;2.37;0.80;;;10.30;76.60;;;;;;4994815;28;20535;-75
2023/01/03 05:49:55;;;;;;;2.70;0.90;;;10.30;76.70;;;;;;4994556;28;20868;-75
2023/01/03 05:52:22;;;;;;;1.80;0.73;;;10.30;76.60;;;;;;4994425;28;21026;-75
2023/01/03 05:54:50;;;;;;;2.77;0.90;;;10.30;76.50;;;;;;4994798;28;20861;-75
2023/01/03 05:57:17;;;;;;;1.60;0.70;;;10.30;76.50;;;;;;4994453;28;20938;-75
2023/01/03 05:59:43;;;;;;;2.13;0.90;;;10.20;76.50;;;;;;4994428;28;20946;-75
2023/01/03 06:02:10;;;;;;;2.10;1.03;;;10.10;76.80;;;;;;4994286;28;20485;-75
2023/01/03 06:04:37;;;;;;;2.30;0.93;;;10.10;76.80;;;;;;4994645;28;20496;-75
2023/01/03 06:07:03;;;;;;;1.57;0.77;;;10.10;76.80;;;;;;4994576;28;20480;-75
2023/01/03 06:09:30;;;;;;;1.90;1.00;;;10.10;76.70;;;;;;4994514;28;20485;-75
2023/01/03 06:11:58;;;;;;;1.77;0.90;;;10.10;76.70;;;;;;4994473;28;20469;-75
2023/01/03 06:14:25;;;;;;;1.60;0.70;;;10.00;76.80;;;;;;4994510;28;20648;-75
2023/01/03 06:19:35;;;;;;;1.67;0.90;;;10.00;77.10;;;;;;4994239;28;20492;-75
2023/01/03 06:22:02;;;;;;;1.80;0.80;;;10.00;77.20;;;;;;4994317;28;20461;-75
2023/01/03 06:24:29;;;;;;;2.10;0.90;;;10.00;77.00;;;;;;4993978;28;20453;-75
2023/01/03 06:26:56;;;;;;;1.60;0.80;;;10.00;76.90;;;;;;4994025;28;20947;-75
2023/01/03 06:29:24;;;;;;;1.70;0.80;;;10.00;76.90;;;;;;4994223;28;20484;-75
2023/01/03 06:31:50;;;;;;;1.80;1.00;;;10.00;77.00;;;;;;4994108;28;20469;-75
2023/01/03 06:34:17;;;;;;;3.07;1.00;;;9.90;77.00;;;;;;4994168;28;20446;-75
2023/01/03 06:36:44;;;;;;;1.80;1.00;;;9.90;77.00;;;;;;4994128;28;20507;-75
2023/01/03 06:39:10;;;;;;;1.63;0.80;;;9.90;77.10;;;;;;4994111;28;20499;-75
2023/01/03 06:41:37;;;;;;;1.77;0.90;;;9.90;77.10;;;;;;4993990;28;20473;-75
2023/01/03 06:44:04;;;;;;;1.57;0.77;;;9.90;77.10;;;;;;4994047;28;20445;-74
2023/01/03 06:54:47;;;;;;;1.80;1.00;;;9.70;77.20;;;;;;4993710;28;20472;-75
2023/01/03 06:57:14;;;;;;;1.83;0.90;;;9.70;77.20;;;;;;4993705;28;20445;-75
2023/01/03 06:59:41;;;;;;;1.90;1.07;;;9.70;77.50;;;;;;4993873;28;20449;-76
2023/01/03 07:02:09;;;;;;;3.03;1.17;;;9.60;77.70;;;;;;4994545;28;21021;-76
2023/01/03 07:04:35;;;;;;;2.20;0.90;;;9.60;77.90;;;;;;4994666;28;20449;-76
2023/01/03 07:07:02;;;;;;;1.80;1.00;;;9.70;77.60;;;;;;4994939;28;20482;-76
2023/01/03 07:09:29;;;;;;;1.60;0.80;;;9.70;77.50;;;;;;4993638;28;20907;-75
2023/01/03 07:11:55;;;;;;;1.70;0.80;;;9.70;77.40;;;;;;4993468;28;20520;-75
2023/01/03 07:14:21;;;;;;;2.07;0.90;;;9.70;77.40;;;;;;4993744;28;20446;-76
2023/01/03 07:16:48;;;;;;;1.90;1.00;;;9.60;77.40;;;;;;4993692;28;20492;-76
2023/01/03 07:19:18;;;;;;;1.90;0.90;;;9.60;77.40;;;;;;4994537;28;20202;-74
2023/01/03 07:21:46;;;;;;;3.10;0.90;;;9.60;77.30;;;;;;4993300;28;20888;-74
2023/01/03 07:24:17;;;;;;;1.83;0.83;;;9.60;77.40;;;;;;4993692;28;20449;-74
2023/01/03 07:26:44;;;;;;;1.60;0.90;;;9.60;77.40;;;;;;4993695;28;20441;-74
2023/01/03 07:29:10;;;;;;;1.60;0.80;;;9.50;77.70;;;;;;4993617;28;20535;-74
2023/01/03 07:31:39;;;;;;;1.87;1.00;;;9.60;77.70;;;;;;4993228;28;21061;-74
2023/01/03 07:34:06;;;;;;;1.70;0.80;;;9.60;77.30;;;;;;4994179;28;20850;-73
2023/01/03 07:36:34;;;;;;;2.37;1.00;;;9.60;77.40;;;;;;4993568;28;20527;-74
2023/01/03 07:39:01;;;;;;;2.63;0.90;;;9.60;77.50;;;;;;4993507;28;20450;-74
2023/01/03 07:44:08;;;;;;;2.00;1.00;;;9.60;77.60;;;;;;4992834;28;20485;-74
2023/01/03 07:46:35;;;;;;;1.87;1.00;;;9.60;77.90;;;;;;4993489;28;20500;-74
2023/01/03 07:49:02;;;;;;;3.63;1.33;;;9.60;78.00;;;;;;4993420;28;20481;-74
2023/01/03 07:51:29;;;;;;;2.00;1.00;;;9.60;78.10;;;;;;4993353;28;20531;-74
2023/01/03 07:53:57;;;;;;;2.07;0.90;;;9.70;78.20;;;;;;4993459;28;20457;-74
2023/01/03 07:56:24;;;;;;;1.80;0.90;;;9.80;78.10;;;;;;4993415;28;20449;-74
2023/01/03 07:58:51;;;;;;;2.43;1.20;;;9.80;78.00;;;;;;4993277;28;20953;-74
2023/01/03 08:01:20;;;;;;;2.00;1.30;;;9.90;77.90;;;;;;4992946;28;20515;-74
2023/01/03 08:03:46;;;;;;;1.97;0.90;;;10.00;77.80;;;;;;4993327;28;20449;-74
2023/01/03 08:06:15;;;;;;;1.60;0.80;;;10.10;77.70;;;;;;4993534;28;20449;-74
2023/01/03 08:08:42;;;;;;;2.87;1.20;;;10.20;77.40;;;;;;4996738;28;20481;-74
2023/01/03 08:13:56;;;;;;;1.70;1.00;;;10.50;77.30;;;;;;4997085;28;20421;-74
2023/01/03 08:16:23;;;;;;;2.23;1.00;;;10.70;77.00;;;;;;4997037;28;20457;-74
2023/01/03 08:18:50;;;;;;;1.97;1.10;;;10.80;76.50;;;;;;4997236;28;20449;-74
2023/01/03 08:21:17;;;;;;;1.83;1.07;;;10.90;76.10;;;;;;4996851;28;20477;-74
2023/01/03 08:23:44;;;;;;;2.23;1.20;;;10.90;75.50;;;;;;4997017;28;20479;-74
2023/01/03 08:26:15;;;;;;;2.70;1.13;;;10.60;76.30;;;;;;4998484;28;20452;-74
2023/01/03 08:28:43;;;;;;;2.07;1.20;;;10.20;78.00;;;;;;4997496;28;20476;-74
2023/01/03 08:31:13;;;;;;;2.70;1.50;;;10.30;77.90;;;;;;4995955;28;20821;-74
2023/01/03 08:33:44;;;;;;;1.90;1.10;;;10.50;77.60;;;;;;4996071;28;21016;-74
2023/01/03 08:36:12;;;;;;;2.10;1.60;;;10.60;77.50;;;;;;4996083;28;20907;-74
2023/01/03 08:38:45;;;;;;;3.27;1.40;;;10.30;78.00;;;;;;4996205;28;20441;-74
2023/01/03 08:41:18;;;;;;;4.70;1.80;;;9.80;79.80;;;;;;4996790;28;20535;-75
2023/01/03 08:43:47;;;;;;;2.70;1.80;;;9.80;80.40;;;;;;4996165;28;20440;-74
2023/01/03 08:46:16;;;;;;;2.20;1.30;;;9.80;80.10;;;;;;4996512;28;20449;-74
2023/01/03 08:48:43;;;;;;;2.30;1.50;;;10.00;80.10;;;;;;4996608;28;20859;-74
2023/01/03 08:51:10;;;;;;;3.20;1.70;;;10.10;79.80;;;;;;4996873;28;20473;-74
2023/01/03 08:53:37;;;;;;;2.10;1.37;;;10.30;79.30;;;;;;4996486;28;20982;-74
2023/01/03 08:56:05;;;;;;;2.53;1.40;;;10.50;79.30;;;;;;4997229;28;20458;-74
2023/01/03 08:58:33;;;;;;;2.00;1.20;;;10.60;78.90;;;;;;4997489;28;20951;-74
2023/01/03 09:01:01;;;;;;;2.67;1.30;;;10.80;78.70;;;;;;4995955;28;20509;-74
2023/01/03 09:03:28;;;;;;;1.97;1.10;;;10.90;78.40;;;;;;4997011;28;20448;-74
2023/01/03 09:05:54;;;;;;;2.07;1.07;;;11.00;77.90;;;;;;4996630;28;20460;-76
2023/01/03 09:08:21;;;;;;;1.70;0.90;;;11.10;77.10;;;;;;4995683;28;21064;-75
2023/01/03 09:10:48;;;;;;;2.37;1.07;;;11.20;76.40;;;;;;4996467;28;20540;-75
2023/01/03 09:13:14;;;;;;;1.80;0.90;;;11.20;76.30;;;;;;4996797;28;20457;-75
2023/01/03 09:15:43;;;;;;;1.80;1.03;;;11.30;76.10;;;;;;4997144;28;20947;-74
2023/01/03 09:18:09;;;;;;;3.07;1.10;;;11.30;76.10;;;;;;4996790;28;20453;-74
2023/01/03 09:20:36;;;;;;;1.70;0.90;;;11.40;75.70;;;;;;4996290;28;20822;-75
2023/01/03 09:23:03;;;;;;;2.20;1.20;;;11.50;75.40;;;;;;4996677;28;20508;-75
2023/01/03 09:25:29;;;;;;;2.30;1.00;;;11.50;75.00;;;;;;4996035;28;20456;-74
2023/01/03 09:27:56;;;;;;;1.90;0.87;;;11.60;74.60;;;;;;4995330;28;20516;-74
2023/01/03 09:30:23;;;;;;;1.90;1.23;;;11.70;74.40;;;;;;4994783;28;20495;-75
2023/01/03 09:32:51;;;;;;;1.80;0.90;;;11.70;74.90;;;;;;4996019;28;20449;-74
2023/01/03 09:35:18;;;;;;;2.33;1.50;;;11.80;74.60;;;;;;4994856;28;20959;-74
2023/01/03 09:37:47;;;;;;;2.67;2.00;;;11.80;74.60;;;;;;4995146;28;20484;-74
2023/01/03 09:40:14;;;;;;;2.37;1.57;;;11.90;73.90;;;;;;4995123;28;20524;-74
2023/01/03 09:45:29;;;;;;;2.50;1.60;;;12.00;73.80;;;;;;4995048;28;20484;-75
2023/01/03 09:47:58;;;;;;;2.83;1.77;;;12.00;73.40;;;;;;4994905;28;20500;-75
2023/01/03 09:50:28;;;;;;;1.83;1.13;;;12.00;73.70;;;;;;4994764;28;20487;-76
2023/01/03 10:04:54;;;;;;;2.33;0.80;;;12.20;72.50;;;;;;4994837;28;20413;-75
2023/01/03 10:07:38;;;;;;;2.57;1.03;;;12.20;72.20;;;;;;4990247;28;20453;-75
2023/01/03 10:10:14;;;;;;;2.17;0.80;;;12.20;71.80;;;;;;4994518;28;20469;-75
2023/01/03 10:12:51;;;;;;;1.90;1.10;;;12.30;71.20;;;;;;4994503;28;20468;-76
2023/01/03 10:15:25;;;;;;;2.77;1.23;;;12.30;71.10;;;;;;4994178;28;20815;-75
2023/01/03 10:18:07;;;;;;;1.70;0.90;;;12.30;71.10;;;;;;5019103;23;20501;-71
2023/01/03 10:20:45;;;;;;;1.70;1.00;;;12.50;71.00;;;;;;4994453;28;20444;-70
2023/01/03 10:23:12;;;;;;;1.60;0.70;;;12.60;70.80;;;;;;4994922;28;20433;-71
2023/01/03 10:25:42;;;;;;;1.63;0.90;;;12.70;70.30;;;;;;4994310;28;20449;-71
2023/01/03 10:28:15;;;;;;;3.77;0.83;;;12.50;70.30;;;;;;4974911;28;20493;-71
2023/01/03 10:31:01;;;;;;;1.80;1.00;;;12.20;71.60;;;;;;4973883;28;20470;-70
2023/01/03 10:33:32;;;;;;;2.57;1.00;;;12.00;72.60;;;;;;4974926;28;20466;-71
2023/01/03 10:36:00;;;;;;;1.60;0.70;;;12.00;73.20;;;;;;4974774;28;20441;-72
2023/01/03 10:38:28;;;;;;;1.60;0.77;;;12.00;72.40;;;;;;4974414;28;20947;-70
2023/01/03 10:40:57;;;;;;;1.67;0.73;;;12.00;73.00;;;;;;4974806;28;20450;-70
2023/01/03 10:43:32;;;;;;;1.70;0.90;;;11.80;72.60;;;;;;4974672;28;20557;-70
2023/01/03 10:46:01;;;;;;;1.80;0.80;;;11.80;72.50;;;;;;4974512;28;20434;-72
2023/01/03 10:48:36;;;;;;;3.30;1.00;;;11.70;72.40;;;;;;4974640;28;20527;-70
2023/01/03 10:51:24;;;;;;;2.00;0.90;;;11.80;72.80;;;;;;4974989;28;20446;-70
2023/01/03 10:53:53;;;;;;;1.60;0.80;;;12.00;72.70;;;;;;4974617;28;20477;-70
2023/01/03 10:56:21;;;;;;;1.70;0.80;;;12.10;72.60;;;;;;4974493;28;20470;-72
2023/01/03 10:58:47;;;;;;;2.57;0.80;;;12.30;72.40;;;;;;4974523;28;20453;-70
2023/01/03 11:01:22;;;;;;;1.50;0.70;;;12.50;71.40;;;;;;4974477;28;20449;-70
2023/01/03 11:04:13;;;;;;;4.47;0.93;;;13.30;70.70;;;;;;4974491;28;20450;-71
2023/01/03 11:06:56;;;;;;;3.60;0.93;;;13.80;67.00;;;;;;4974486;28;20524;-71
2023/01/03 11:09:23;;;;;;;2.03;0.80;;;14.00;66.70;;;;;;4974344;28;20477;-71
2023/01/03 11:11:54;;;;;;;1.90;0.90;;;14.20;66.40;;;;;;4974316;28;20443;-71
2023/01/03 11:14:24;;;;;;;2.30;0.90;;;14.30;65.50;;;;;;4974417;28;20431;-71
2023/01/03 11:16:57;;;;;;;2.83;0.97;;;14.20;66.10;;;;;;4974212;28;20509;-71
2023/01/03 11:19:27;;;;;;;1.90;1.00;;;13.80;67.20;;;;;;4974038;28;20825;-70
2023/01/03 11:22:02;;;;;;;2.03;0.90;;;13.60;67.00;;;;;;4974356;28;20537;-70
2023/01/03 11:24:41;;;;;;;2.00;1.00;;;13.20;67.80;;;;;;4974604;28;20465;-71
2023/01/03 11:27:16;;;;;;;1.80;1.00;;;13.00;68.80;;;;;;4974283;28;20462;-71
2023/01/03 11:29:54;;;;;;;1.83;0.80;;;12.80;67.60;;;;;;4975011;28;20540;-70
2023/01/03 11:32:32;;;;;;;2.00;1.03;;;12.60;69.10;;;;;;4974516;28;20496;-71
2023/01/03 11:35:31;;;;;;;1.67;0.80;;;12.50;68.90;;;;;;4974250;28;20435;-70
2023/01/03 11:38:10;;;;;;;2.00;0.97;;;12.20;69.10;;;;;;4973834;28;20995;-70
2023/01/03 11:40:45;;;;;;;1.60;0.80;;;12.20;70.00;;;;;;4974144;28;20520;-70
2023/01/03 11:43:30;;;;;;;1.60;0.80;;;12.40;69.30;;;;;;4977223;28;20855;-71
2023/01/03 11:46:18;;;;;;;1.80;0.80;;;12.50;69.50;;;;;;4977785;28;20430;-70
2023/01/03 11:49:09;;;;;;;2.20;1.20;;;12.60;68.40;;;;;;4977823;28;20434;-70
2023/01/03 11:51:42;;;;;;;1.60;0.70;;;12.50;68.00;;;;;;4977751;28;20446;-71
2023/01/03 11:54:26;;;;;;;2.10;0.90;;;12.20;69.30;;;;;;4977745;28;20438;-71
2023/01/03 11:56:54;;;;;;;1.70;0.70;;;12.20;69.40;;;;;;4977543;28;20462;-71
2023/01/03 11:59:51;;;;;;;2.50;1.00;;;12.30;69.10;;;;;;4977260;28;20927;-72
2023/01/03 12:02:45;;;;;;;2.20;1.40;;;12.50;68.90;;;;;;4977181;28;20855;-71
2023/01/03 12:05:36;;;;;;;1.60;0.70;;;12.50;68.30;;;;;;4977584;28;20486;-71
2023/01/03 12:08:19;;;;;;;1.50;0.70;;;13.20;66.80;;;;;;4977419;28;20473;-70
2023/01/03 12:10:52;;;;;;;1.70;0.83;;;13.80;63.50;;;;;;4977294;28;20979;-70
2023/01/03 12:13:26;;;;;;;2.37;1.10;;;14.40;62.00;;;;;;4977396;28;20439;-71
2023/01/03 12:15:58;;;;;;;1.70;0.70;;;15.10;61.40;;;;;;4977056;28;20442;-71
2023/01/03 12:18:34;;;;;;;1.80;1.00;;;16.20;59.10;;;;;;4977233;28;20443;-71
2023/01/03 12:21:07;;;;;;;1.80;0.90;;;18.40;53.70;;;;;;4977206;28;20444;-71
2023/01/03 12:23:40;;;;;;;1.87;0.80;;;19.90;50.90;;;;;;4977119;28;20808;-72
2023/01/03 12:26:11;;;;;;;1.60;0.70;;;21.90;47.00;;;;;;4976995;28;20815;-71
2023/01/03 12:28:40;;;;;;;1.80;1.17;;;23.10;45.40;;;;;;4976841;28;20897;-71
2023/01/03 12:31:19;;;;;;;1.50;0.70;;;24.40;43.30;;;;;;4976919;28;20563;-73
2023/01/03 12:33:52;;;;;;;1.60;0.80;;;25.10;41.40;;;;;;4976955;28;20484;-71
2023/01/03 12:36:27;;;;;;;1.50;0.80;;;26.30;39.60;;;;;;4976855;28;20474;-72
2023/01/03 12:39:03;;;;;;;1.70;0.70;;;26.90;38.30;;;;;;4976610;28;20484;-71
2023/01/03 12:41:38;;;;;;;1.70;0.77;;;28.20;36.60;;;;;;4976842;28;20445;-71
2023/01/03 12:44:12;;;;;;;2.43;0.90;;;28.70;35.60;;;;;;4976774;28;20434;-71
2023/01/03 12:46:44;;;;;;;1.60;0.80;;;27.70;36.90;;;;;;4976663;28;20470;-71
2023/01/03 12:49:15;;;;;;;1.70;0.70;;;28.30;35.80;;;;;;4976642;28;20501;-71
2023/01/03 12:51:41;;;;;;;3.00;0.97;;;29.30;35.60;;;;;;4976657;28;20426;-71
2023/01/03 12:54:23;;;;;;;1.97;0.80;;;30.20;34.10;;;;;;4975583;28;20509;-71
2023/01/03 12:57:06;;;;;;;1.50;0.60;;;30.60;33.00;;;;;;4976188;28;20939;-71
2023/01/03 12:59:49;;;;;;;1.70;0.80;;;29.80;33.40;;;;;;4976535;28;20790;-72
2023/01/03 13:02:24;;;;;;;1.77;0.80;;;29.50;33.90;;;;;;4976515;28;20466;-72
2023/01/03 13:04:55;;;;;;;1.50;0.70;;;28.50;34.50;;;;;;4976469;28;20460;-71
2023/01/03 13:07:25;;;;;;;1.73;0.70;;;27.50;35.40;;;;;;4976251;28;20474;-71
2023/01/03 13:09:56;;;;;;;1.77;0.80;;;28.00;35.70;;;;;;4976433;28;20466;-72
2023/01/03 13:12:28;;;;;;;1.50;0.70;;;29.50;34.60;;;;;;4976758;28;20489;-72
2023/01/03 13:14:57;;;;;;;1.67;0.80;;;30.90;32.80;;;;;;4976758;28;20758;-72
2023/01/03 13:17:26;;;;;;;2.03;0.70;;;31.10;32.00;;;;;;4975728;28;20486;-72
2023/01/03 13:19:58;;;;;;;1.60;0.70;;;31.10;31.80;;;;;;4976075;28;20458;-71
2023/01/03 13:22:50;;;;;;;1.50;0.70;;;30.50;32.30;;;;;;4975978;28;20446;-73
2023/01/03 13:25:42;;;;;;;1.50;0.80;;;29.70;33.20;;;;;;4976227;28;20521;-72
2023/01/03 13:28:33;;;;;;;1.83;0.70;;;29.60;33.40;;;;;;4962077;28;20494;-73
2023/01/03 13:31:34;;;;;;;1.97;0.70;;;31.10;31.70;;;;;;4975836;28;20482;-73
2023/01/03 13:34:25;;;;;;;1.67;0.77;;;32.40;30.30;;;;;;4956428;28;20457;-72
2023/01/03 13:37:15;;;;;;;1.50;0.70;;;32.60;30.10;;;;;;4973177;28;20891;-73
2023/01/03 13:40:00;;;;;;;1.57;0.70;;;32.20;30.00;;;;;;4975385;28;20846;-73
2023/01/03 13:42:30;;;;;;;1.60;0.90;;;32.00;29.70;;;;;;4976025;28;20437;-72
2023/01/03 13:45:30;;;;;;;2.10;0.90;;;31.10;31.20;;;;;;4975625;28;20446;-71
2023/01/03 13:48:09;;;;;;;1.60;0.73;;;29.90;32.10;;;;;;4975513;28;20529;-72
2023/01/03 13:50:37;;;;;;;2.70;0.77;;;29.30;32.80;;;;;;4975474;28;20466;-72
2023/01/03 13:53:05;;;;;;;2.23;0.70;;;29.10;33.20;;;;;;4975697;28;20450;-73
2023/01/03 13:55:34;;;;;;;1.57;0.80;;;30.10;32.70;;;;;;4975076;28;20971;-72
2023/01/03 13:58:01;;;;;;;2.30;0.90;;;29.70;32.00;;;;;;4975366;28;20516;-72
2023/01/03 14:00:30;;;;;;;1.57;0.77;;;28.30;33.80;;;;;;4975211;28;21127;-72
2023/01/03 14:03:36;;;;;;;2.23;0.90;;;27.40;34.50;;;;;;4975368;28;20509;-72
2023/01/03 14:06:42;;;;;;;1.50;0.70;;;26.60;35.50;;;;;;4974977;28;20470;-71
2023/01/03 14:09:32;;;;;;;1.60;0.70;;;25.10;37.30;;;;;;4974877;28;21010;-73
2023/01/03 14:12:17;;;;;;;1.57;0.80;;;24.20;38.70;;;;;;4975176;28;20465;-72
2023/01/03 14:14:52;;;;;;;3.10;0.73;;;23.50;39.90;;;;;;4974762;28;20916;-72
2023/01/03 14:17:23;;;;;;;1.73;0.83;;;24.60;39.00;;;;;;4974795;28;20477;-72
2023/01/03 14:19:54;;;;;;;1.87;1.13;;;24.80;38.20;;;;;;4974950;28;20485;-72
2023/01/03 14:22:23;;;;;;;1.90;0.80;;;24.80;39.20;;;;;;4974935;28;20430;-72
2023/01/03 14:24:51;;;;;;;1.90;0.80;;;25.30;38.60;;;;;;4974889;28;20442;-72
2023/01/03 14:27:32;;;;;;;1.77;0.90;;;24.60;39.10;;;;;;4974786;28;20469;-74
2023/01/03 14:29:58;;;;;;;1.97;0.80;;;24.30;39.00;;;;;;4974796;28;20471;-72
2023/01/03 14:32:28;;;;;;;3.23;1.00;;;23.40;40.50;;;;;;4974790;28;20454;-72
2023/01/03 14:34:56;;;;;;;2.20;0.73;;;21.80;42.50;;;;;;4974797;28;20454;-72
2023/01/03 14:37:25;;;;;;;1.70;0.90;;;21.00;44.30;;;;;;4974709;28;20474;-73
2023/01/03 14:39:53;;;;;;;1.70;0.80;;;20.20;45.60;;;;;;4974353;28;21010;-72
2023/01/03 14:42:19;;;;;;;1.80;0.90;;;19.20;47.60;;;;;;4975039;28;20450;-72
2023/01/03 14:44:50;;;;;;;1.90;0.83;;;17.90;50.40;;;;;;4975180;28;20461;-72
2023/01/03 14:47:18;;;;;;;1.90;0.90;;;17.20;52.00;;;;;;4974722;28;20501;-72
2023/01/03 14:49:47;;;;;;;1.57;0.80;;;16.60;53.70;;;;;;4974527;28;20501;-71
2023/01/03 14:52:20;;;;;;;2.43;1.00;;;16.20;54.60;;;;;;4974267;28;20806;-72
2023/01/03 14:54:50;;;;;;;1.70;0.80;;;15.80;55.60;;;;;;4974582;28;20434;-71
2023/01/03 14:57:23;;;;;;;3.23;1.43;;;15.50;56.70;;;;;;4974452;28;20521;-71
2023/01/03 14:59:51;;;;;;;2.00;0.90;;;14.60;58.80;;;;;;4974505;28;20449;-72
2023/01/03 15:02:18;;;;;;;1.87;0.90;;;14.00;60.40;;;;;;4974446;28;20450;-72
2023/01/03 15:04:51;;;;;;;1.60;0.80;;;13.50;61.80;;;;;;4974483;28;20837;-71
2023/01/03 15:07:32;;;;;;;1.97;1.00;;;13.20;62.90;;;;;;4974229;28;20536;-71
2023/01/03 15:10:06;;;;;;;2.23;0.80;;;13.20;63.20;;;;;;4974295;28;20431;-72
2023/01/03 15:12:36;;;;;;;1.83;1.00;;;13.00;63.70;;;;;;4974404;28;20461;-72
2023/01/03 15:15:14;;;;;;;2.27;0.90;;;12.90;64.00;;;;;;4974448;28;20446;-72
2023/01/03 15:17:40;;;;;;;1.90;0.90;;;12.90;64.10;;;;;;4976781;28;20465;-71
2023/01/03 15:20:09;;;;;;;1.57;0.80;;;12.70;64.20;;;;;;4978464;28;20454;-72
2023/01/03 15:22:40;;;;;;;1.97;0.90;;;12.60;65.00;;;;;;4978413;28;20501;-71
2023/01/03 15:25:17;;;;;;;2.00;0.90;;;12.60;64.90;;;;;;4978735;28;20438;-72
2023/01/03 15:27:48;;;;;;;1.97;1.10;;;12.70;64.80;;;;;;4978176;28;20545;-71
2023/01/03 15:30:25;;;;;;;1.60;0.80;;;12.60;65.20;;;;;;4977972;28;20430;-73
2023/01/03 15:33:20;;;;;;;1.60;0.80;;;12.60;65.00;;;;;;4978100;28;20438;-72
2023/01/03 15:35:50;;;;;;;2.40;1.10;;;12.60;65.30;;;;;;4977909;28;20916;-71
2023/01/03 15:38:23;;;;;;;2.83;1.10;;;12.60;65.40;;;;;;4977691;28;20964;-72
2023/01/03 15:40:50;;;;;;;3.40;1.27;;;12.60;65.20;;;;;;4977953;28;20493;-72
2023/01/03 15:43:20;;;;;;;2.70;1.73;;;12.60;65.50;;;;;;4977817;28;20450;-71
2023/01/03 15:45:57;;;;;;;2.97;1.30;;;12.60;65.40;;;;;;4977731;28;20528;-72
2023/01/03 15:48:25;;;;;;;2.57;1.50;;;12.60;65.40;;;;;;4977655;28;20934;-71
2023/01/03 15:50:54;;;;;;;2.27;1.30;;;12.50;65.80;;;;;;4977657;28;20577;-71
2023/01/03 15:53:25;;;;;;;3.20;1.60;;;12.50;66.10;;;;;;4977720;28;20878;-72
2023/01/03 15:55:55;;;;;;;3.70;1.43;;;12.50;66.10;;;;;;4977599;28;20494;-72
2023/01/03 15:58:23;;;;;;;2.60;1.40;;;12.50;66.30;;;;;;4977537;28;20589;-72
2023/01/03 16:00:50;;;;;;;3.43;1.70;;;12.50;66.40;;;;;;4977426;28;20449;-72
2023/01/03 16:03:18;;;;;;;1.90;1.10;;;12.40;66.50;;;;;;4977356;28;20454;-71
2023/01/03 16:05:45;;;;;;;2.63;1.47;;;12.20;66.90;;;;;;4977417;28;20481;-71
2023/01/03 16:08:23;;;;;;;2.30;1.33;;;12.20;67.00;;;;;;4977438;28;20450;-72
2023/01/03 16:10:52;;;;;;;1.80;1.20;;;12.10;67.20;;;;;;4977288;28;20521;-71
2023/01/03 16:13:19;;;;;;;3.00;1.73;;;12.00;67.30;;;;;;4977273;28;20450;-72
2023/01/03 16:15:47;;;;;;;2.13;1.33;;;11.90;67.40;;;;;;4976960;28;20453;-72
2023/01/03 16:18:16;;;;;;;1.60;0.80;;;11.90;67.70;;;;;;5064468;23;20492;-76
2023/01/03 16:20:43;;;;;;;1.73;1.00;;;11.80;67.80;;;;;;4996660;28;20496;-76
2023/01/03 16:23:23;;;;;;;2.63;1.00;;;11.70;68.60;;;;;;4996674;28;20449;-76
2023/01/03 16:25:51;;;;;;;1.97;0.97;;;11.60;68.60;;;;;;4996480;28;20844;-77
2023/01/03 16:28:17;;;;;;;5.27;1.80;;;11.60;68.50;;;;;;4996099;28;20880;-77
2023/01/03 16:30:44;;;;;;;2.83;1.57;;;11.50;68.70;;;;;;4996426;28;20481;-77
2023/01/03 16:33:18;;;;;;;2.80;2.03;;;11.40;68.90;;;;;;4996472;28;20453;-76
2023/01/03 16:35:45;;;;;;;3.00;1.80;;;11.30;69.10;;;;;;4996421;28;20521;-76
2023/01/03 16:38:13;;;;;;;2.10;1.40;;;11.20;69.60;;;;;;4995999;28;20520;-76
2023/01/03 16:40:40;;;;;;;2.40;1.40;;;11.10;69.80;;;;;;4996387;28;20453;-77
2023/01/03 16:43:08;;;;;;;3.67;1.40;;;11.10;70.00;;;;;;4996211;28;20452;-76
2023/01/03 16:45:38;;;;;;;3.27;2.10;;;11.00;70.10;;;;;;4996108;28;20935;-75
2023/01/03 16:48:05;;;;;;;6.43;5.40;;;11.00;70.00;;;;;;4996843;28;20904;-77
2023/01/03 16:50:36;;;;;;;7.50;6.80;;;10.90;70.20;;;;;;4996115;28;20457;-76
2023/01/03 16:53:07;;;;;;;5.80;5.20;;;10.90;70.40;;;;;;4996927;28;20433;-77
2023/01/03 16:55:37;;;;;;;6.00;5.40;;;10.90;70.30;;;;;;4995992;28;20492;-77
2023/01/03 16:58:04;;;;;;;2.47;2.23;;;10.80;70.30;;;;;;4996224;28;20556;-77
2023/01/03 17:00:34;;;;;;;2.63;1.87;;;10.80;70.30;;;;;;4996000;28;20480;-77
2023/01/03 17:03:01;;;;;;;2.90;1.73;;;10.80;70.30;;;;;;4996019;28;20484;-77
2023/01/03 17:05:31;;;;;;;3.77;1.60;;;10.70;70.50;;;;;;4995850;28;20460;-76
2023/01/03 17:08:03;;;;;;;3.00;1.57;;;10.60;70.90;;;;;;4995748;28;20469;-76
2023/01/03 17:10:33;;;;;;;2.57;1.63;;;10.60;70.90;;;;;;4995663;28;20537;-77
2023/01/03 17:13:01;;;;;;;2.80;1.80;;;10.60;71.10;;;;;;4995616;28;20457;-76
2023/01/03 17:15:28;;;;;;;2.33;1.40;;;10.60;71.10;;;;;;4995689;28;20445;-77
2023/01/03 17:17:56;;;;;;;1.80;1.10;;;10.50;71.10;;;;;;4995422;28;20482;-77
2023/01/03 17:20:23;;;;;;;4.73;1.73;;;10.50;71.10;;;;;;4996171;28;20504;-79
2023/01/03 17:22:53;;;;;;;2.97;1.77;;;10.40;71.50;;;;;;5009427;28;20453;-78
2023/01/03 17:25:20;;;;;;;2.43;1.43;;;10.40;71.80;;;;;;4997145;28;21013;-77
2023/01/03 17:27:52;;;;;;;3.70;1.80;;;10.30;72.00;;;;;;4995523;28;20469;-77
2023/01/03 17:30:20;;;;;;;3.83;1.40;;;10.30;71.80;;;;;;4995362;28;20445;-74
2023/01/03 17:32:47;;;;;;;3.03;2.07;;;10.30;71.60;;;;;;4995209;28;20485;-77
2023/01/03 17:35:16;;;;;;;3.23;2.37;;;10.30;71.70;;;;;;4995395;28;20510;-74
2023/01/03 17:37:44;;;;;;;3.17;2.33;;;10.30;71.70;;;;;;4996061;28;20473;-77
2023/01/03 17:40:18;;;;;;;2.50;2.00;;;10.20;71.70;;;;;;4995647;28;20449;-77
2023/01/03 17:42:50;;;;;;;2.63;1.83;;;10.20;71.90;;;;;;4996619;28;20437;-78
2023/01/03 17:50:46;;;;;;;3.80;2.20;;;10.20;72.40;;;;;;4995617;28;20892;-77
2023/01/03 17:53:17;;;;;;;4.63;1.83;;;10.10;72.70;;;;;;4995804;28;20969;-76
2023/01/03 17:55:47;;;;;;;2.80;1.83;;;10.10;72.70;;;;;;4997435;28;20437;-78